createdAt,value
2023-03-15T00:01:54.576Z,8.55
2023-03-15T00:03:59.289Z,8.56
2023-03-15T00:06:03.029Z,8.54
2023-03-15T00:08:07.574Z,8.53
2023-03-15T00:10:12.084Z,8.53
2023-03-15T00:12:13.616Z,8.52
2023-03-15T00:14:15.535Z,8.53
2023-03-15T00:16:18.302Z,8.52
2023-03-15T00:18:29.018Z,8.50
2023-03-15T00:20:31.225Z,8.50
2023-03-15T00:22:35.506Z,8.51
2023-03-15T00:24:37.052Z,8.51
2023-03-15T00:26:39.149Z,8.51
2023-03-15T00:28:43.748Z,8.49
2023-03-15T00:30:47.761Z,8.49
2023-03-15T00:32:53.921Z,8.48
2023-03-15T00:34:55.890Z,8.48
2023-03-15T00:36:57.764Z,8.48
2023-03-15T00:38:59.245Z,8.51
2023-03-15T00:41:15.532Z,8.46
2023-03-15T00:43:17.862Z,8.46
2023-03-15T00:45:21.739Z,8.46
2023-03-15T00:47:23.300Z,8.44
2023-03-15T00:49:27.263Z,8.42
2023-03-15T00:51:29.888Z,8.39
2023-03-15T00:53:31.517Z,8.39
2023-03-15T00:55:38.849Z,8.38
2023-03-15T00:57:41.443Z,8.38
2023-03-15T00:59:45.005Z,8.38
2023-03-15T01:01:46.671Z,8.35
2023-03-15T01:03:51.387Z,8.35
2023-03-15T01:05:52.858Z,8.32
2023-03-15T01:07:54.400Z,8.32
2023-03-15T01:09:55.895Z,8.32
2023-03-15T01:12:01.409Z,8.30
2023-03-15T01:14:06.061Z,8.27
2023-03-15T01:16:09.509Z,8.26
2023-03-15T01:18:11.010Z,8.24
2023-03-15T01:20:14.020Z,8.23
2023-03-15T01:22:17.579Z,8.20
2023-03-15T01:24:19.091Z,8.19
2023-03-15T01:26:26.675Z,8.16
2023-03-15T01:28:28.990Z,8.16
2023-03-15T01:30:32.738Z,8.13
2023-03-15T01:32:34.521Z,8.12
2023-03-15T01:34:39.819Z,8.12
2023-03-15T01:36:52.386Z,8.11
2023-03-15T01:38:57.265Z,8.12
2023-03-15T01:41:05.026Z,8.12
2023-03-15T01:43:06.436Z,8.12
2023-03-15T01:45:45.772Z,8.11
2023-03-15T01:47:47.632Z,8.10
2023-03-15T01:49:54.304Z,8.10
2023-03-15T01:51:56.818Z,8.10
2023-03-15T01:54:13.345Z,8.09
2023-03-15T01:56:15.762Z,8.08
2023-03-15T01:58:17.482Z,8.07
2023-03-15T02:00:21.396Z,8.09
2023-03-15T02:02:29.250Z,8.04
2023-03-15T02:04:36.286Z,8.01
2023-03-15T02:06:38.415Z,8.02
2023-03-15T02:08:46.107Z,8.02
2023-03-15T02:10:51.804Z,8.02
2023-03-15T02:12:56.160Z,8.03
2023-03-15T02:15:04.790Z,8.03
2023-03-15T02:17:07.316Z,8.02
2023-03-15T02:19:20.413Z,8.02
2023-03-15T02:21:49.056Z,8.02
2023-03-15T02:24:04.364Z,8.02
2023-03-15T02:26:28.266Z,8.02
2023-03-15T02:28:33.401Z,8.02
2023-03-15T02:30:35.477Z,8.01
2023-03-15T02:32:37.937Z,8.02
2023-03-15T02:34:39.516Z,8.01
2023-03-15T02:36:47.114Z,8.01
2023-03-15T02:38:50.021Z,8.01
2023-03-15T02:40:53.288Z,8.01
2023-03-15T02:43:03.227Z,8.00
2023-03-15T02:45:05.342Z,7.99
2023-03-15T02:47:22.360Z,7.98
2023-03-15T02:49:27.955Z,7.98
2023-03-15T02:51:30.053Z,7.96
2023-03-15T02:53:32.718Z,7.94
2023-03-15T02:55:34.319Z,7.93
2023-03-15T02:57:36.318Z,7.92
2023-03-15T02:59:38.971Z,7.91
2023-03-15T03:01:40.832Z,7.90
2023-03-15T03:03:46.018Z,7.88
2023-03-15T03:05:48.621Z,7.87
2023-03-15T03:07:50.906Z,7.85
2023-03-15T03:09:52.850Z,7.83
2023-03-15T03:12:00.355Z,7.80
2023-03-15T03:14:03.038Z,7.78
2023-03-15T03:16:04.921Z,7.78
2023-03-15T03:18:09.868Z,7.74
2023-03-15T03:20:13.618Z,7.74
2023-03-15T03:22:19.783Z,7.72
2023-03-15T03:24:21.686Z,7.69
2023-03-15T03:26:27.911Z,7.67
2023-03-15T03:28:33.164Z,7.67
2023-03-15T03:30:36.447Z,7.64
2023-03-15T03:32:40.345Z,7.62
2023-03-15T03:34:42.172Z,7.60
2023-03-15T03:36:45.491Z,7.58
2023-03-15T03:38:51.481Z,7.57
2023-03-15T03:40:53.335Z,7.55
2023-03-15T03:42:56.921Z,7.54
2023-03-15T03:44:59.003Z,7.51
2023-03-15T03:47:06.676Z,7.50
2023-03-15T03:49:10.272Z,7.47
2023-03-15T03:51:11.942Z,7.46
2023-03-15T03:53:13.753Z,7.44
2023-03-15T03:55:15.419Z,7.42
2023-03-15T03:57:18.389Z,7.39
2023-03-15T03:59:19.895Z,7.37
2023-03-15T04:01:30.373Z,7.34
2023-03-15T04:03:32.428Z,7.33
2023-03-15T04:05:52.248Z,7.28
2023-03-15T04:07:57.873Z,7.27
2023-03-15T04:10:06.531Z,7.25
2023-03-15T04:12:12.610Z,7.22
2023-03-15T04:14:16.281Z,7.20
2023-03-15T04:16:20.554Z,7.18
2023-03-15T04:18:40.424Z,7.16
2023-03-15T04:20:48.429Z,7.13
2023-03-15T04:22:53.275Z,7.10
2023-03-15T04:25:02.270Z,7.07
2023-03-15T04:27:22.582Z,7.05
2023-03-15T04:29:42.237Z,7.01
2023-03-15T04:31:53.185Z,6.99
2023-03-15T04:34:07.938Z,6.97
2023-03-15T04:36:19.836Z,6.96
2023-03-15T04:38:46.492Z,6.93
2023-03-15T04:41:14.694Z,6.90
2023-03-15T04:43:46.236Z,6.87
2023-03-15T04:46:04.375Z,6.85
2023-03-15T04:48:25.652Z,6.83
2023-03-15T04:50:41.571Z,6.81
2023-03-15T04:52:59.591Z,6.78
2023-03-15T04:55:22.431Z,6.76
2023-03-15T04:57:44.286Z,6.73
2023-03-15T05:00:10.203Z,6.72
2023-03-15T05:02:35.856Z,6.69
2023-03-15T05:04:44.775Z,6.67
2023-03-15T05:07:00.609Z,6.65
2023-03-15T05:09:25.069Z,6.64
2023-03-15T05:11:40.646Z,6.62
2023-03-15T05:13:56.234Z,6.60
2023-03-15T05:16:12.791Z,6.58
2023-03-15T05:18:17.062Z,6.57
2023-03-15T05:20:40.941Z,6.55
2023-03-15T05:23:06.056Z,6.53
2023-03-15T05:25:16.382Z,6.51
2023-03-15T05:27:37.397Z,6.49
2023-03-15T05:29:46.002Z,6.48
2023-03-15T05:32:07.697Z,6.46
2023-03-15T05:34:32.367Z,6.44
2023-03-15T05:36:57.166Z,6.42
2023-03-15T05:39:18.814Z,6.39
2023-03-15T05:41:32.334Z,6.39
2023-03-15T05:43:52.565Z,6.38
2023-03-15T05:46:13.094Z,6.37
2023-03-15T05:48:33.353Z,6.35
2023-03-15T05:51:03.175Z,6.34
2023-03-15T05:53:28.336Z,6.34
2023-03-15T05:55:47.150Z,6.33
2023-03-15T05:58:09.955Z,6.33
2023-03-15T06:00:12.940Z,6.32
2023-03-15T06:02:17.465Z,6.32
2023-03-15T06:04:41.166Z,6.32
2023-03-15T06:06:45.030Z,6.33
2023-03-15T06:08:47.661Z,6.32
2023-03-15T06:10:49.126Z,6.32
2023-03-15T06:12:52.200Z,6.32
2023-03-15T06:14:53.945Z,6.31
2023-03-15T06:16:55.694Z,6.30
2023-03-15T06:19:01.062Z,6.30
2023-03-15T06:21:02.551Z,6.30
2023-03-15T06:23:04.056Z,6.31
2023-03-15T06:25:14.041Z,6.31
2023-03-15T06:27:15.616Z,6.32
2023-03-15T06:29:17.308Z,6.31
2023-03-15T06:31:21.705Z,6.31
2023-03-15T06:33:30.176Z,6.32
2023-03-15T06:35:31.889Z,6.32
2023-03-15T06:37:38.719Z,6.34
2023-03-15T06:39:40.440Z,6.35
2023-03-15T06:41:42.372Z,6.37
2023-03-15T06:43:49.502Z,6.38
2023-03-15T06:45:53.328Z,6.40
2023-03-15T06:47:55.207Z,6.40
2023-03-15T06:49:57.031Z,6.43
2023-03-15T06:51:58.945Z,6.44
2023-03-15T06:54:00.576Z,6.49
2023-03-15T06:56:04.784Z,6.52
2023-03-15T06:58:12.566Z,6.59
2023-03-15T07:00:15.054Z,6.67
2023-03-15T07:02:18.693Z,6.78
2023-03-15T07:04:21.767Z,6.94
2023-03-15T07:06:23.294Z,7.11
2023-03-15T07:08:28.069Z,7.30
2023-03-15T07:10:29.793Z,7.47
2023-03-15T07:12:31.390Z,7.63
2023-03-15T07:14:35.890Z,7.77
2023-03-15T07:16:38.706Z,7.89
2023-03-15T07:18:40.229Z,8.02
2023-03-15T07:20:41.912Z,8.11
2023-03-15T07:22:45.652Z,8.21
2023-03-15T07:24:47.064Z,8.34
2023-03-15T07:26:53.236Z,8.48
2023-03-15T07:28:54.677Z,8.69
2023-03-15T07:30:58.631Z,8.91
2023-03-15T07:33:00.267Z,9.16
2023-03-15T07:35:01.883Z,9.43
2023-03-15T07:37:03.766Z,9.70
2023-03-15T07:39:05.208Z,9.93
2023-03-15T07:41:09.074Z,10.15
2023-03-15T07:43:12.775Z,10.33
2023-03-15T07:45:17.791Z,10.50
2023-03-15T07:47:19.297Z,10.65
2023-03-15T07:49:21.048Z,10.81
2023-03-15T07:51:22.659Z,10.98
2023-03-15T07:53:24.546Z,11.15
2023-03-15T07:55:26.416Z,11.27
2023-03-15T07:57:29.003Z,11.35
2023-03-15T07:59:30.708Z,11.37
2023-03-15T08:01:32.148Z,11.34
2023-03-15T08:03:33.645Z,11.30
2023-03-15T08:05:44.608Z,11.28
2023-03-15T08:07:47.349Z,11.30
2023-03-15T08:09:51.735Z,11.36
2023-03-15T08:11:53.446Z,11.43
2023-03-15T08:13:54.877Z,11.52
2023-03-15T08:15:56.378Z,11.59
2023-03-15T08:17:59.085Z,11.67
2023-03-15T08:20:05.784Z,11.77
2023-03-15T08:22:07.687Z,11.86
2023-03-15T08:24:09.364Z,11.97
2023-03-15T08:26:11.123Z,12.09
2023-03-15T08:28:12.896Z,12.24
2023-03-15T08:30:19.462Z,12.41
2023-03-15T08:32:21.705Z,12.59
2023-03-15T08:34:25.914Z,12.79
2023-03-15T08:36:27.682Z,12.97
2023-03-15T08:38:29.903Z,13.08
2023-03-15T08:40:31.822Z,13.17
2023-03-15T08:42:33.353Z,13.24
2023-03-15T08:44:36.432Z,13.31
2023-03-15T08:46:39.272Z,13.32
2023-03-15T08:48:41.122Z,13.33
2023-03-15T08:50:48.826Z,13.27
2023-03-15T08:52:50.818Z,13.22
2023-03-15T08:54:52.415Z,13.13
2023-03-15T08:56:54.008Z,13.05
2023-03-15T08:58:55.685Z,12.96
2023-03-15T09:00:57.861Z,12.86
2023-03-15T09:02:59.419Z,12.79
2023-03-15T09:05:00.873Z,12.70
2023-03-15T09:07:02.356Z,12.62
2023-03-15T09:09:03.830Z,12.53
2023-03-15T09:11:05.530Z,12.41
2023-03-15T09:13:07.098Z,12.31
2023-03-15T09:15:12.525Z,12.22
2023-03-15T09:17:14.364Z,12.10
2023-03-15T09:19:15.948Z,12.04
2023-03-15T09:21:17.590Z,11.97
2023-03-15T09:23:19.331Z,11.91
2023-03-15T09:25:21.614Z,11.86
2023-03-15T09:27:25.231Z,11.80
2023-03-15T09:29:26.721Z,11.73
2023-03-15T09:31:28.386Z,11.66
2023-03-15T09:33:29.850Z,11.58
2023-03-15T09:35:31.498Z,11.49
2023-03-15T09:37:34.087Z,11.40
2023-03-15T09:39:35.746Z,11.32
2023-03-15T09:41:46.033Z,11.23
2023-03-15T09:44:01.879Z,11.13
2023-03-15T09:46:09.487Z,11.05
2023-03-15T09:48:39.367Z,10.95
2023-03-15T09:50:53.684Z,10.83
2023-03-15T09:53:01.066Z,10.74
2023-03-15T09:55:22.205Z,10.66
2023-03-15T09:57:31.875Z,10.55
2023-03-15T09:59:37.908Z,10.47
2023-03-15T10:01:41.514Z,10.38
2023-03-15T10:04:11.187Z,10.28
2023-03-15T10:09:34.462Z,10.05
2023-03-15T10:12:21.139Z,9.97
2023-03-15T10:14:54.839Z,9.88
2023-03-15T10:17:00.224Z,9.79
2023-03-15T10:19:40.115Z,9.73
2023-03-15T10:21:49.952Z,9.65
2023-03-15T10:23:59.888Z,9.61
2023-03-15T10:26:11.652Z,9.56
2023-03-15T10:28:26.081Z,9.52
2023-03-15T10:30:30.986Z,9.48
2023-03-15T10:32:38.415Z,9.45
2023-03-15T10:34:40.041Z,9.42
2023-03-15T10:36:46.876Z,9.40
2023-03-15T10:38:50.947Z,9.37
2023-03-15T10:40:59.406Z,9.34
2023-03-15T10:43:03.381Z,9.32
2023-03-15T10:45:26.435Z,9.29
2023-03-15T10:47:28.189Z,9.27
2023-03-15T10:49:37.731Z,9.24
2023-03-15T10:51:48.287Z,9.23
2023-03-15T10:53:59.274Z,9.20
2023-03-15T10:56:06.702Z,9.18
2023-03-15T10:58:17.190Z,9.18
2023-03-15T11:00:32.226Z,9.17
2023-03-15T11:02:33.942Z,9.16
2023-03-15T11:04:43.346Z,9.14
2023-03-15T11:06:47.226Z,9.13
2023-03-15T11:08:48.704Z,9.11
2023-03-15T11:10:58.630Z,9.12
2023-03-15T11:13:10.919Z,9.11
2023-03-15T11:15:17.829Z,9.10
2023-03-15T11:17:30.627Z,9.09
2023-03-15T11:19:42.177Z,9.10
2023-03-15T11:21:46.382Z,9.12
2023-03-15T11:23:49.448Z,9.15
2023-03-15T11:25:51.966Z,9.17
2023-03-15T11:27:54.353Z,9.18
2023-03-15T11:29:59.704Z,9.18
2023-03-15T11:32:10.767Z,9.20
2023-03-15T11:34:36.184Z,9.19
2023-03-15T11:36:44.084Z,9.21
2023-03-15T11:38:46.422Z,9.22
2023-03-15T11:40:56.450Z,9.24
2023-03-15T11:43:28.901Z,9.24
2023-03-15T11:45:45.372Z,9.24
2023-03-15T11:48:20.616Z,9.26
2023-03-15T11:50:22.379Z,9.28
2023-03-15T11:52:29.470Z,9.26
2023-03-15T11:54:32.447Z,9.27
2023-03-15T11:56:43.350Z,9.26
2023-03-15T11:58:45.015Z,9.28
2023-03-15T12:00:53.882Z,9.28
2023-03-15T12:03:26.246Z,9.27
2023-03-15T12:05:45.021Z,9.26
2023-03-15T12:08:16.814Z,9.28
2023-03-15T12:10:29.586Z,9.28
2023-03-15T12:12:31.061Z,9.27
2023-03-15T12:14:35.551Z,9.24
2023-03-15T12:16:42.625Z,9.25
2023-03-15T12:18:45.524Z,9.26
2023-03-15T12:21:12.345Z,9.24
2023-03-15T12:23:19.824Z,9.22
2023-03-15T12:25:25.393Z,9.21
2023-03-15T12:27:28.564Z,9.19
2023-03-15T12:29:32.983Z,9.19
2023-03-15T12:32:03.532Z,9.16
2023-03-15T12:34:07.879Z,9.16
2023-03-15T12:36:18.314Z,9.18
2023-03-15T12:38:23.024Z,9.17
2023-03-15T12:40:53.808Z,9.16
2023-03-15T12:42:57.329Z,9.16
2023-03-15T12:45:17.367Z,9.15
2023-03-15T12:47:18.933Z,9.16
2023-03-15T12:49:23.190Z,9.16
2023-03-15T12:52:01.871Z,9.17
2023-03-15T12:54:04.368Z,9.17
2023-03-15T12:56:17.816Z,9.18
2023-03-15T12:58:24.629Z,9.20
2023-03-15T13:00:30.269Z,9.23
2023-03-15T13:02:48.958Z,9.23
2023-03-15T13:04:50.709Z,9.28
2023-03-15T13:07:09.968Z,9.27
2023-03-15T13:09:38.547Z,9.27
2023-03-15T13:11:57.969Z,9.28
2023-03-15T13:14:16.579Z,9.30
2023-03-15T13:16:44.482Z,9.31
2023-03-15T13:18:58.178Z,9.34
2023-03-15T13:21:16.847Z,9.36
2023-03-15T13:23:26.120Z,9.42
2023-03-15T13:25:37.320Z,9.47
2023-03-15T13:27:54.094Z,9.51
2023-03-15T13:29:56.202Z,9.57
2023-03-15T13:32:20.202Z,9.61
2023-03-15T13:34:24.119Z,9.68
2023-03-15T13:36:44.327Z,9.75
2023-03-15T13:38:50.785Z,9.80
2023-03-15T13:40:56.172Z,9.85
2023-03-15T13:43:01.141Z,9.91
2023-03-15T13:45:09.041Z,9.98
2023-03-15T13:47:21.855Z,10.06
2023-03-15T13:49:24.924Z,10.09
2023-03-15T13:51:36.319Z,10.16
2023-03-15T13:53:49.543Z,10.19
2023-03-15T13:55:53.521Z,10.24
2023-03-15T13:58:00.067Z,10.27
2023-03-15T14:00:17.229Z,10.29
2023-03-15T14:02:46.782Z,10.31
2023-03-15T14:04:53.322Z,10.35
2023-03-15T14:07:21.228Z,10.37
2023-03-15T14:09:25.980Z,10.38
2023-03-15T14:11:38.241Z,10.40
2023-03-15T14:14:02.948Z,10.40
2023-03-15T14:16:07.411Z,10.45
2023-03-15T14:18:08.937Z,10.48
2023-03-15T14:20:17.790Z,10.49
2023-03-15T14:22:19.569Z,10.51
2023-03-15T14:24:31.148Z,10.54
2023-03-15T14:26:33.838Z,10.57
2023-03-15T14:28:38.674Z,10.58
2023-03-15T14:30:40.605Z,10.63
2023-03-15T14:32:52.915Z,10.67
2023-03-15T14:35:04.452Z,10.70
2023-03-15T14:37:32.477Z,10.72
2023-03-15T14:39:34.204Z,10.74
2023-03-15T14:41:38.694Z,10.78
2023-03-15T14:43:40.247Z,10.83
2023-03-15T14:45:45.322Z,10.88
2023-03-15T14:47:56.726Z,10.96
2023-03-15T14:50:04.913Z,11.04
2023-03-15T14:52:07.192Z,11.11
2023-03-15T14:54:13.195Z,11.16
2023-03-15T14:56:15.367Z,11.18
2023-03-15T14:58:22.261Z,11.22
2023-03-15T15:00:24.810Z,11.28
2023-03-15T15:02:26.340Z,11.32
2023-03-15T15:04:34.130Z,11.34
2023-03-15T15:06:37.934Z,11.38
2023-03-15T15:08:42.987Z,11.42
2023-03-15T15:10:49.773Z,11.45
2023-03-15T15:13:04.962Z,11.48
2023-03-15T15:15:19.550Z,11.52
2023-03-15T15:17:21.212Z,11.57
2023-03-15T15:19:25.062Z,11.60
2023-03-15T15:21:33.155Z,11.64
2023-03-15T15:23:56.928Z,11.67
2023-03-15T15:26:02.122Z,11.70
2023-03-15T15:28:03.817Z,11.71
2023-03-15T15:30:06.190Z,11.73
2023-03-15T15:32:07.826Z,11.75
2023-03-15T15:34:12.740Z,11.74
2023-03-15T15:36:23.649Z,11.73
2023-03-15T15:38:32.423Z,11.72
2023-03-15T15:40:36.787Z,11.71
2023-03-15T15:42:38.344Z,11.66
2023-03-15T15:44:39.868Z,11.58
2023-03-15T15:46:41.615Z,11.46
2023-03-15T15:48:46.289Z,11.37
2023-03-15T15:50:47.999Z,11.26
2023-03-15T15:52:52.220Z,11.15
2023-03-15T15:54:53.924Z,11.02
2023-03-15T15:57:00.529Z,10.91
2023-03-15T15:59:04.647Z,10.81
2023-03-15T16:01:06.239Z,10.72
2023-03-15T16:03:17.398Z,10.60
2023-03-15T16:05:25.252Z,10.50
2023-03-15T16:07:26.775Z,10.40
2023-03-15T16:09:30.641Z,10.31
2023-03-15T16:11:37.061Z,10.21
2023-03-15T16:13:43.591Z,10.12
2023-03-15T16:15:45.132Z,10.02
2023-03-15T16:17:50.210Z,9.96
2023-03-15T16:20:06.810Z,9.87
2023-03-15T16:22:08.608Z,9.79
2023-03-15T16:24:21.355Z,9.72
2023-03-15T16:26:28.659Z,9.65
2023-03-15T16:28:32.979Z,9.57
2023-03-15T16:30:37.165Z,9.51
2023-03-15T16:32:44.441Z,9.46
2023-03-15T16:34:54.612Z,9.40
2023-03-15T16:36:56.152Z,9.35
2023-03-15T16:38:57.850Z,9.29
2023-03-15T16:41:00.867Z,9.24
2023-03-15T16:43:04.410Z,9.19
2023-03-15T16:45:12.541Z,9.11
2023-03-15T16:47:15.330Z,9.06
2023-03-15T16:49:16.973Z,9.00
2023-03-15T16:51:19.106Z,8.95
2023-03-15T16:53:20.902Z,8.88
2023-03-15T16:55:29.083Z,8.83
2023-03-15T16:57:30.586Z,8.77
2023-03-15T16:59:32.152Z,8.74
2023-03-15T17:01:34.500Z,8.68
2023-03-15T17:03:37.041Z,8.64
2023-03-15T17:05:42.848Z,8.59
2023-03-15T17:07:46.980Z,8.58
2023-03-15T17:09:50.382Z,8.52
2023-03-15T17:11:52.376Z,8.48
2023-03-15T17:13:53.960Z,8.42
2023-03-15T17:15:55.465Z,8.38
2023-03-15T17:18:03.253Z,8.34
2023-03-15T17:20:14.135Z,8.28
2023-03-15T17:22:20.609Z,8.22
2023-03-15T17:24:22.554Z,8.17
2023-03-15T17:26:29.551Z,8.13
2023-03-15T17:28:31.068Z,8.10
2023-03-15T17:30:38.831Z,8.04
2023-03-15T17:32:41.615Z,7.99
2023-03-15T17:34:47.082Z,7.94
2023-03-15T17:36:48.683Z,7.88
2023-03-15T17:38:51.184Z,7.84
2023-03-15T17:40:58.387Z,7.78
2023-03-15T17:43:02.099Z,7.73
2023-03-15T17:45:20.857Z,7.67
2023-03-15T17:47:22.577Z,7.64
2023-03-15T17:49:25.136Z,7.58
2023-03-15T17:51:32.948Z,7.53
2023-03-15T17:53:34.420Z,7.47
2023-03-15T17:55:36.023Z,7.40
2023-03-15T17:57:40.461Z,7.36
2023-03-15T17:59:44.683Z,7.32
2023-03-15T18:01:48.649Z,7.28
2023-03-15T18:03:58.013Z,7.25
2023-03-15T18:06:01.474Z,7.18
2023-03-15T18:08:03.981Z,7.13
2023-03-15T18:10:06.017Z,7.08
2023-03-15T18:12:11.416Z,7.02
2023-03-15T18:14:15.428Z,6.99
2023-03-15T18:16:18.807Z,6.94
2023-03-15T18:18:20.554Z,6.91
2023-03-15T18:20:26.800Z,6.86
2023-03-15T18:22:32.644Z,6.82
2023-03-15T18:24:34.469Z,6.77
2023-03-15T18:26:37.077Z,6.72
2023-03-15T18:28:42.681Z,6.67
2023-03-15T18:30:45.282Z,6.62
2023-03-15T18:32:47.379Z,6.58
2023-03-15T18:34:50.190Z,6.53
2023-03-15T18:36:51.834Z,6.49
2023-03-15T18:38:54.599Z,6.44
2023-03-15T18:40:57.449Z,6.40
2023-03-15T18:43:00.246Z,6.35
2023-03-15T18:45:02.491Z,6.30
2023-03-15T18:47:07.980Z,6.26
2023-03-15T18:49:10.135Z,6.21
2023-03-15T18:51:25.787Z,6.17
2023-03-15T18:53:27.406Z,6.14
2023-03-15T18:55:28.897Z,6.11
2023-03-15T18:57:30.804Z,6.07
2023-03-15T18:59:32.508Z,6.04
2023-03-15T19:01:34.287Z,6.00
2023-03-15T19:03:36.469Z,5.97
2023-03-15T19:05:38.417Z,5.92
2023-03-15T19:07:41.046Z,5.88
2023-03-15T19:09:42.554Z,5.85
2023-03-15T19:11:44.164Z,5.82
2023-03-15T19:13:53.938Z,5.78
2023-03-15T19:15:55.890Z,5.74
2023-03-15T19:18:00.208Z,5.71
2023-03-15T19:20:01.785Z,5.68
2023-03-15T19:22:04.106Z,5.64
2023-03-15T19:24:08.954Z,5.61
2023-03-15T19:26:10.622Z,5.58
2023-03-15T19:28:12.480Z,5.56
2023-03-15T19:30:21.119Z,5.53
2023-03-15T19:32:24.332Z,5.49
2023-03-15T19:34:25.924Z,5.46
2023-03-15T19:36:27.529Z,5.43
2023-03-15T19:38:29.456Z,5.41
2023-03-15T19:40:30.956Z,5.39
2023-03-15T19:42:32.419Z,5.36
2023-03-15T19:44:36.182Z,5.34
2023-03-15T19:46:37.933Z,5.30
2023-03-15T19:48:40.009Z,5.28
2023-03-15T19:50:41.672Z,5.26
2023-03-15T19:52:46.983Z,5.25
2023-03-15T19:54:49.070Z,5.22
2023-03-15T19:56:51.189Z,5.18
2023-03-15T19:58:53.207Z,5.17
2023-03-15T20:00:58.431Z,5.14
2023-03-15T20:03:00.037Z,5.13
2023-03-15T20:05:01.631Z,5.11
2023-03-15T20:07:03.625Z,5.07
2023-03-15T20:09:05.923Z,5.06
2023-03-15T20:11:08.325Z,5.03
2023-03-15T20:13:10.789Z,5.01
2023-03-15T20:15:15.274Z,5.00
2023-03-15T20:17:16.947Z,4.97
2023-03-15T20:19:19.758Z,4.96
2023-03-15T20:21:21.938Z,4.93
2023-03-15T20:23:24.147Z,4.90
2023-03-15T20:25:25.833Z,4.88
2023-03-15T20:27:27.545Z,4.86
2023-03-15T20:29:31.618Z,4.85
2023-03-15T20:31:33.771Z,4.83
2023-03-15T20:33:35.461Z,4.81
2023-03-15T20:35:37.166Z,4.77
2023-03-15T20:37:41.330Z,4.77
2023-03-15T20:39:42.924Z,4.75
2023-03-15T20:41:47.158Z,4.71
2023-03-15T20:43:49.114Z,4.71
2023-03-15T20:45:55.940Z,4.69
2023-03-15T20:47:57.510Z,4.66
2023-03-15T20:50:00.157Z,4.64
2023-03-15T20:52:01.990Z,4.62
2023-03-15T20:54:04.970Z,4.60
2023-03-15T20:56:07.209Z,4.56
2023-03-15T20:58:08.783Z,4.55
2023-03-15T21:00:16.788Z,4.54
2023-03-15T21:02:18.344Z,4.54
2023-03-15T21:04:22.207Z,4.50
2023-03-15T21:06:23.976Z,4.47
2023-03-15T21:08:25.596Z,4.45
2023-03-15T21:10:27.137Z,4.45
2023-03-15T21:12:28.851Z,4.42
2023-03-15T21:14:30.421Z,4.38
2023-03-15T21:16:33.349Z,4.35
2023-03-15T21:18:36.039Z,4.33
2023-03-15T21:20:37.644Z,4.32
2023-03-15T21:22:41.539Z,4.30
2023-03-15T21:24:55.259Z,4.27
2023-03-15T21:26:57.898Z,4.25
2023-03-15T21:28:59.404Z,4.23
2023-03-15T21:31:01.100Z,4.19
2023-03-15T21:33:02.854Z,4.17
2023-03-15T21:35:05.219Z,4.15
2023-03-15T21:37:06.741Z,4.13
2023-03-15T21:39:08.334Z,4.10
2023-03-15T21:41:12.831Z,4.07
2023-03-15T21:43:14.590Z,4.06
2023-03-15T21:45:16.352Z,4.06
2023-03-15T21:47:18.156Z,4.03
2023-03-15T21:49:20.445Z,4.03
2023-03-15T21:51:22.312Z,4.00
2023-03-15T21:53:23.869Z,3.99
2023-03-15T21:55:27.952Z,3.98
2023-03-15T21:57:29.469Z,3.95
2023-03-15T21:59:30.936Z,3.94
2023-03-15T22:01:35.568Z,3.91
2023-03-15T22:03:37.303Z,3.92
2023-03-15T22:05:38.824Z,3.89
2023-03-15T22:07:42.046Z,3.88
2023-03-15T22:09:43.625Z,3.87
2023-03-15T22:11:45.319Z,3.84
2023-03-15T22:13:46.895Z,3.82
2023-03-15T22:15:48.443Z,3.82
2023-03-15T22:17:51.359Z,3.80
2023-03-15T22:19:55.801Z,3.78
2023-03-15T22:21:57.621Z,3.77
2023-03-15T22:23:59.149Z,3.74
2023-03-15T22:26:00.637Z,3.71
2023-03-15T22:28:02.276Z,3.71
2023-03-15T22:30:05.329Z,3.69
2023-03-15T22:32:07.757Z,3.68
2023-03-15T22:34:09.273Z,3.65
2023-03-15T22:36:13.498Z,3.64
2023-03-15T22:38:15.710Z,3.61
2023-03-15T22:40:18.615Z,3.59
2023-03-15T22:42:20.131Z,3.57
2023-03-15T22:44:21.735Z,3.57
2023-03-15T22:46:23.477Z,3.57
2023-03-15T22:48:26.025Z,3.55
2023-03-15T22:50:28.129Z,3.55
2023-03-15T22:52:29.782Z,3.53
2023-03-15T22:54:32.837Z,3.51
2023-03-15T22:56:34.292Z,3.49
2023-03-15T22:58:35.784Z,3.49
2023-03-15T23:00:37.253Z,3.47
2023-03-15T23:02:39.298Z,3.46
2023-03-15T23:04:41.038Z,3.45
2023-03-15T23:06:42.650Z,3.44
2023-03-15T23:08:44.488Z,3.41
2023-03-15T23:10:46.011Z,3.37
2023-03-15T23:12:47.550Z,3.34
2023-03-15T23:14:49.695Z,3.33
2023-03-15T23:16:52.250Z,3.30
2023-03-15T23:18:53.789Z,3.30
2023-03-15T23:21:07.004Z,3.28
2023-03-15T23:23:11.582Z,3.26
2023-03-15T23:25:15.141Z,3.25
2023-03-15T23:27:17.320Z,3.23
2023-03-15T23:29:18.749Z,3.21
2023-03-15T23:31:20.870Z,3.19
2023-03-15T23:33:24.810Z,3.17
2023-03-15T23:35:27.157Z,3.17
2023-03-15T23:37:31.523Z,3.15
2023-03-15T23:39:33.081Z,3.14
2023-03-15T23:41:36.468Z,3.14
2023-03-15T23:43:38.284Z,3.13
2023-03-15T23:45:39.674Z,3.11
2023-03-15T23:47:50.453Z,3.11
2023-03-15T23:49:52.147Z,3.08
2023-03-15T23:51:56.511Z,3.07
2023-03-15T23:53:59.350Z,3.05
2023-03-15T23:56:12.769Z,3.07
2023-03-15T23:58:14.436Z,3.05
